Time;durP1;ratioP1;P1;durP2;ratioP2;P2;SDS_P1;SDS_P2;PMS_P1;PMS_P2;Temp;Humidity;BMP_temperature;BMP_pressure;BME280_temperature;BME280_humidity;BME280_pressure;Samples;Min_cycle;Max_cycle;Signal;HPM_P1;HPM_P2
2022/10/03 06:42:44;;;;;;;;;12.00;9.00;;;;;13.91;70.82;102551.53;2633271;23;45101;-86
2022/10/03 06:43:57;;;;;;;;;9.25;8.50;;;;;13.92;70.88;102549.78;2382689;28;46988;-84
2022/10/03 06:45:08;;;;;;;;;11.25;9.25;;;;;13.93;70.91;102552.38;2390481;28;44847;-86
2022/10/03 06:46:24;;;;;;;;;8.00;6.75;;;;;13.95;70.75;102561.16;2393381;28;46224;-85
2022/10/03 06:48:11;;;;;;;;;7.75;7.75;;;;;13.98;70.52;102567.28;2390184;28;45270;-85
2022/10/03 06:49:33;;;;;;;;;9.50;8.00;;;;;13.96;70.66;102564.66;2384727;28;47147;-86
2022/10/03 06:51:27;;;;;;;;;8.50;6.25;;;;;13.98;70.69;102564.63;2389398;28;45481;-85
2022/10/03 06:53:04;;;;;;;;;8.50;8.25;;;;;14.00;70.96;102571.63;2383974;28;47374;-86
2022/10/03 06:54:31;;;;;;;;;9.00;7.50;;;;;14.03;70.77;102568.06;2391472;28;44803;-86
2022/10/03 06:56:30;;;;;;;;;8.00;8.00;;;;;14.05;70.91;102572.44;2383975;28;46246;-85
2022/10/03 06:58:12;;;;;;;;;9.25;7.00;;;;;14.07;70.69;102575.06;2378388;28;45465;-86
2022/10/03 06:59:31;;;;;;;;;11.00;8.00;;;;;14.08;71.29;102568.84;2379419;28;47139;-85
2022/10/03 07:01:01;;;;;;;;;7.00;6.75;;;;;14.11;71.01;102563.53;2385210;28;45364;-85
2022/10/03 07:02:49;;;;;;;;;9.00;7.50;;;;;14.16;70.85;102568.72;2382418;28;47204;-85
2022/10/03 07:04:06;;;;;;;;;9.50;8.50;;;;;14.17;70.89;102570.47;2392842;28;45499;-85
2022/10/03 07:05:59;;;;;;;;;9.25;8.50;;;;;14.18;70.87;102575.72;2394118;28;45495;-89
2022/10/03 07:07:31;;;;;;;;;9.50;8.00;;;;;14.20;70.63;102577.47;2394127;28;44780;-86
2022/10/03 07:09:09;;;;;;;;;8.75;7.00;;;;;14.19;70.81;102579.25;2394060;28;46792;-88
2022/10/03 07:10:22;;;;;;;;;11.75;7.00;;;;;14.17;70.82;102576.63;2393193;28;45250;-87
2022/10/03 07:12:06;;;;;;;;;10.25;7.25;;;;;14.19;70.86;102584.53;2375725;28;48622;-87
2022/10/03 07:13:20;;;;;;;;;10.75;7.75;;;;;14.23;70.94;102590.63;2378800;28;45294;-87
2022/10/03 07:14:48;;;;;;;;;7.75;7.50;;;;;14.25;70.81;102588.81;2385875;28;48285;-87
2022/10/03 07:16:38;;;;;;;;;9.50;7.00;;;;;14.26;70.72;102574.72;2380880;28;44838;-86
2022/10/03 07:18:07;;;;;;;;;10.50;9.25;;;;;14.30;70.72;102581.66;2345435;29;45714;-86
2022/10/03 07:19:33;;;;;;;;;5.75;4.75;;;;;14.32;70.65;102579.88;2345237;29;45499;-86
2022/10/03 07:21:14;;;;;;;;;9.00;7.25;;;;;14.35;70.58;102581.56;2346344;29;48065;-86
2022/10/03 07:22:49;;;;;;;;;9.25;7.00;;;;;14.34;70.18;102583.38;2344896;29;45468;-86
2022/10/03 07:24:24;;;;;;;;;8.50;8.50;;;;;14.34;70.53;102583.38;2392128;28;46554;-86
2022/10/03 07:26:12;;;;;;;;;9.75;7.00;;;;;14.35;70.43;102582.47;2389989;28;45334;-86
2022/10/03 07:27:44;;;;;;;;;8.75;7.75;;;;;14.38;70.57;102590.34;2391862;28;48457;-87
2022/10/03 07:29:13;;;;;;;;;8.75;7.25;;;;;14.41;70.71;102589.41;2392824;28;45270;-86
2022/10/03 07:30:29;;;;;;;;;11.50;9.00;;;;;14.43;70.48;102584.06;2394484;28;45404;-87
2022/10/03 07:32:01;;;;;;;;;12.25;11.00;;;;;14.45;70.51;102590.22;2376849;28;44749;-88
2022/10/03 07:33:32;;;;;;;;;14.75;11.00;;;;;14.46;70.57;102584.03;2372210;28;48520;-86
2022/10/03 07:35:08;;;;;;;;;10.50;10.25;;;;;14.49;70.66;102586.63;2388742;28;45564;-86
2022/10/03 07:40:52;;;;;;;;;9.50;6.00;;;;;14.54;70.52;102603.28;2391723;28;45514;-86
2022/10/03 07:42:14;;;;;;;;;9.75;8.25;;;;;14.56;70.33;102601.47;2379811;28;45432;-86
2022/10/03 07:43:34;;;;;;;;;11.75;6.75;;;;;14.57;70.18;102600.56;2391732;28;45779;-86
2022/10/03 07:44:56;;;;;;;;;10.00;9.25;;;;;14.57;70.24;102605.84;2393957;28;45255;-87
2022/10/03 07:46:34;;;;;;;;;11.75;9.00;;;;;14.59;70.44;102605.84;2393671;28;45437;-86
2022/10/03 07:47:53;;;;;;;;;10.00;8.50;;;;;14.61;70.09;102606.66;2388578;28;45514;-86
2022/10/03 07:49:45;;;;;;;;;6.75;6.75;;;;;14.62;69.90;102606.63;2376242;28;47203;-85
2022/10/03 07:51:07;;;;;;;;;13.00;12.00;;;;;14.64;70.19;102609.25;2347782;29;45499;-88
2022/10/03 07:52:46;;;;;;;;;14.25;8.25;;;;;14.67;70.05;102605.69;2346612;29;46957;-86
2022/10/03 07:54:24;;;;;;;;;10.25;6.75;;;;;14.70;70.32;102606.47;2382410;28;45469;-85
2022/10/03 07:56:03;;;;;;;;;8.50;7.25;;;;;14.73;70.14;102601.13;2388362;28;46575;-86
2022/10/03 07:57:22;;;;;;;;;8.25;8.25;;;;;14.80;70.00;102603.63;2388938;28;45388;-85
2022/10/03 07:58:58;;;;;;;;;10.00;8.25;;;;;14.82;70.15;102605.34;2394347;28;45568;-86
2022/10/03 08:00:28;;;;;;;;;13.00;7.25;;;;;14.87;69.97;102613.22;2376616;28;45255;-85
2022/10/03 08:01:54;;;;;;;;;9.25;7.75;;;;;14.89;69.56;102613.19;2385065;28;45627;-86
2022/10/03 08:03:44;;;;;;;;;6.25;6.25;;;;;14.90;69.38;102610.50;2382428;28;44799;-86
2022/10/03 08:05:13;;;;;;;;;9.50;7.75;;;;;14.91;69.51;102604.31;2383038;28;45343;-86
2022/10/03 08:06:44;;;;;;;;;8.00;5.25;;;;;14.93;69.53;102609.56;2392608;28;45451;-86
2022/10/03 08:08:18;;;;;;;;;7.50;5.00;;;;;14.95;69.51;102613.94;2391324;28;47570;-88
2022/10/03 08:09:56;;;;;;;;;12.25;7.75;;;;;14.99;69.26;102614.72;2365733;28;45932;-86
2022/10/03 08:11:06;;;;;;;;;15.00;13.25;;;;;15.02;68.98;102622.59;2384693;28;46270;-87
2022/10/03 08:12:40;;;;;;;;;12.75;10.50;;;;;15.03;69.19;102620.84;2392243;28;45266;-88
2022/10/03 08:14:23;;;;;;;;;13.25;9.00;;;;;15.04;68.94;102620.78;2392922;28;46215;-87
2022/10/03 08:15:53;;;;;;;;;11.75;9.75;;;;;15.03;68.63;102619.06;2379168;28;45534;-88
2022/10/03 08:17:39;;;;;;;;;11.25;10.75;;;;;15.05;68.57;102619.03;2388320;28;47013;-87
2022/10/03 08:19:24;;;;;;;;;9.25;8.00;;;;;15.04;68.21;102622.56;2379440;28;45195;-86
2022/10/03 08:20:56;;;;;;;;;14.00;11.00;;;;;15.04;68.46;102626.09;2373732;28;48384;-86
2022/10/03 08:22:25;;;;;;;;;22.00;13.50;;;;;15.05;68.75;102633.16;2389745;28;45517;-85
2022/10/03 08:24:04;;;;;;;;;15.50;12.25;;;;;15.06;67.84;102626.94;2393409;28;46736;-85
2022/10/03 08:25:27;;;;;;;;;15.00;12.75;;;;;15.07;68.30;102630.44;2348650;28;44770;-85
2022/10/03 08:27:08;;;;;;;;;15.50;15.00;;;;;15.09;68.56;102625.13;2387015;28;45969;-85
2022/10/03 08:28:49;;;;;;;;;12.50;12.25;;;;;15.13;68.73;102624.16;2377057;28;46125;-85
2022/10/03 08:30:28;;;;;;;;;19.00;15.75;;;;;15.17;68.69;102609.94;2387897;28;45391;-85
2022/10/03 08:32:01;;;;;;;;;18.25;13.75;;;;;15.18;68.64;102612.56;2384189;28;44845;-85
2022/10/03 08:33:27;;;;;;;;;18.00;15.50;;;;;15.21;68.38;102616.91;2389670;28;45324;-85
2022/10/03 08:34:44;;;;;;;;;16.25;15.25;;;;;15.23;68.51;102622.19;2383682;28;45298;-85
2022/10/03 08:36:20;;;;;;;;;14.25;13.25;;;;;15.25;68.47;102617.72;2385930;28;48110;-84
2022/10/03 08:38:01;;;;;;;;;22.75;13.00;;;;;15.27;68.46;102618.53;2388499;28;45253;-85
2022/10/03 08:39:18;;;;;;;;;22.50;19.00;;;;;15.29;68.50;102614.06;2392062;28;46220;-86
2022/10/03 08:40:52;;;;;;;;;19.50;17.00;;;;;15.32;68.56;102616.66;2383675;28;44661;-85
2022/10/03 08:42:24;;;;;;;;;19.50;17.25;;;;;15.37;68.46;102619.19;2381278;28;47348;-89
2022/10/03 08:44:02;;;;;;;;;26.25;17.75;;;;;15.39;68.16;102615.63;2379829;28;45503;-88
2022/10/03 08:45:18;;;;;;;;;17.00;16.00;;;;;15.40;67.99;102616.50;2376725;28;48239;-86
2022/10/03 08:46:59;;;;;;;;;18.25;17.00;;;;;15.42;68.07;102606.72;2387121;28;45235;-86
2022/10/03 08:48:24;;;;;;;;;25.25;20.25;;;;;15.43;67.94;102604.94;2384516;28;47469;-87
2022/10/03 08:50:05;;;;;;;;;18.75;16.75;;;;;15.43;67.94;102605.81;2390205;28;45317;-87
2022/10/03 08:51:52;;;;;;;;;21.50;16.25;;;;;15.45;68.18;102614.59;2392763;28;45741;-88
2022/10/03 08:53:05;;;;;;;;;18.75;14.00;;;;;15.44;68.01;102612.84;2393466;28;44731;-86
2022/10/03 08:54:34;;;;;;;;;21.00;15.75;;;;;15.46;67.99;102616.31;2393238;28;46371;-87
2022/10/03 08:56:06;;;;;;;;;19.25;17.25;;;;;15.49;68.05;102610.97;2391973;28;44830;-85
2022/10/03 08:57:32;;;;;;;;;18.50;14.25;;;;;15.50;67.94;102606.53;2377773;28;46328;-85
2022/10/03 08:59:07;;;;;;;;;17.75;14.50;;;;;15.52;67.60;102605.59;2387613;28;44773;-86
2022/10/03 09:00:22;;;;;;;;;27.00;19.75;;;;;15.55;67.65;102609.09;2392861;28;45640;-85
2022/10/03 09:01:51;;;;;;;;;15.75;15.75;;;;;15.56;67.52;102601.06;2382718;28;45290;-84
2022/10/03 09:03:30;;;;;;;;;19.50;17.00;;;;;15.58;67.31;102606.38;2383371;28;47738;-85
2022/10/03 09:05:12;;;;;;;;;20.75;18.50;;;;;15.59;67.58;102608.09;2383093;28;45186;-84
2022/10/03 09:06:44;;;;;;;;;24.00;20.00;;;;;15.61;67.49;102606.25;2383609;28;46721;-85
2022/10/03 09:08:39;;;;;;;;;18.25;16.25;;;;;15.61;67.66;102606.25;2393367;28;45328;-85
2022/10/03 09:10:08;;;;;;;;;22.00;16.75;;;;;15.61;67.36;102603.63;2393584;28;45293;-85
2022/10/03 09:11:54;;;;;;;;;17.25;17.25;;;;;15.63;67.00;102599.19;2381958;28;45409;-85
2022/10/03 09:13:32;;;;;;;;;24.25;20.75;;;;;15.63;67.20;102602.66;2391195;28;45518;-85
2022/10/03 09:14:56;;;;;;;;;25.25;21.00;;;;;15.65;67.56;102607.94;2393334;28;44822;-85
2022/10/03 09:16:19;;;;;;;;;23.50;17.25;;;;;15.67;67.40;102611.44;2391212;28;45408;-87
2022/10/03 09:17:42;;;;;;;;;18.50;18.50;;;;;15.70;67.25;102608.72;2393630;28;45170;-87
2022/10/03 09:19:11;;;;;;;;;19.75;17.00;;;;;15.71;67.23;102607.78;2393181;28;45579;-86
2022/10/03 09:20:47;;;;;;;;;28.25;19.25;;;;;15.73;66.98;102621.88;2393670;28;45826;-89
2022/10/03 09:22:19;;;;;;;;;19.50;17.00;;;;;15.73;67.60;102629.81;2392949;28;45275;-86
2022/10/03 09:24:06;;;;;;;;;20.25;17.00;;;;;15.77;67.51;102633.28;2393672;28;44585;-86
2022/10/03 09:25:38;;;;;;;;;21.75;18.50;;;;;15.79;67.41;102638.53;2391829;28;46608;-86
2022/10/03 09:27:24;;;;;;;;;22.50;20.75;;;;;15.79;67.01;102646.50;2387414;28;45464;-87
2022/10/03 09:28:43;;;;;;;;;22.25;19.50;;;;;15.76;66.59;102642.13;2393113;28;46100;-85
2022/10/03 09:30:05;;;;;;;;;24.50;19.75;;;;;15.74;67.08;102650.13;2393068;28;44793;-86
2022/10/03 09:31:38;;;;;;;;;20.75;18.25;;;;;15.76;66.96;102644.78;2382758;28;47191;-86
2022/10/03 09:33:27;;;;;;;;;22.25;17.75;;;;;15.79;67.11;102649.13;2382270;28;45258;-87
2022/10/03 09:34:56;;;;;;;;;25.25;21.25;;;;;15.78;67.20;102642.13;2390792;28;46267;-86
2022/10/03 09:36:12;;;;;;;;;17.75;16.00;;;;;15.79;66.98;102647.38;2381334;28;45243;-86
2022/10/03 09:37:43;;;;;;;;;23.00;20.50;;;;;15.80;67.20;102646.47;2386262;28;46498;-86
2022/10/03 09:39:34;;;;;;;;;26.00;19.50;;;;;15.85;67.14;102654.31;2382845;28;45265;-86
2022/10/03 09:41:12;;;;;;;;;21.00;19.75;;;;;15.88;67.32;102651.56;2390083;28;45627;-86
2022/10/03 09:42:44;;;;;;;;;20.75;17.75;;;;;15.90;66.95;102649.72;2392365;28;45484;-85
2022/10/03 09:44:09;;;;;;;;;17.00;13.75;;;;;15.90;66.76;102652.38;2380728;28;48633;-86
2022/10/03 09:45:41;;;;;;;;;23.00;16.25;;;;;15.91;67.01;102656.78;2387137;28;45577;-86
2022/10/03 09:47:21;;;;;;;;;20.50;17.75;;;;;15.92;66.85;102650.59;2382960;28;47035;-86
2022/10/03 09:48:56;;;;;;;;;18.25;15.25;;;;;15.93;66.84;102647.00;2379857;28;44739;-86
2022/10/03 09:50:31;;;;;;;;;19.00;17.25;;;;;15.94;66.44;102642.59;2388698;28;45476;-86
2022/10/03 09:51:47;;;;;;;;;17.75;16.00;;;;;15.93;66.60;102646.13;2392441;28;45265;-86
2022/10/03 09:53:17;;;;;;;;;21.00;15.25;;;;;15.93;66.71;102649.66;2386079;28;46458;-86
2022/10/03 09:54:30;;;;;;;;;18.50;15.25;;;;;15.96;66.37;102649.59;2378906;28;44759;-86
2022/10/03 09:56:12;;;;;;;;;19.50;15.50;;;;;15.96;66.60;102646.94;2386260;28;46588;-86
2022/10/03 09:57:57;;;;;;;;;22.75;19.25;;;;;15.98;66.57;102645.13;2392975;28;45231;-86
2022/10/03 09:59:35;;;;;;;;;20.75;18.50;;;;;15.99;66.32;102640.69;2387347;28;47081;-86
2022/10/03 10:00:54;;;;;;;;;19.00;15.25;;;;;16.00;66.57;102642.41;2384219;28;44622;-87
2022/10/03 10:02:22;;;;;;;;;21.50;17.50;;;;;16.00;66.81;102642.41;2380978;28;48313;-86
2022/10/03 10:03:53;;;;;;;;;17.75;16.00;;;;;16.04;66.90;102635.28;2386777;28;45362;-87
2022/10/03 10:05:32;;;;;;;;;16.75;15.50;;;;;16.08;66.45;102631.66;2389322;28;45333;-85
2022/10/03 10:07:10;;;;;;;;;23.00;19.50;;;;;16.10;66.30;102629.81;2393350;28;45333;-86
2022/10/03 10:08:57;;;;;;;;;25.00;16.00;;;;;16.12;66.36;102628.03;2392798;28;45286;-87
2022/10/03 10:10:32;;;;;;;;;18.25;15.75;;;;;16.14;66.23;102623.53;2392508;28;45245;-86
2022/10/03 10:12:00;;;;;;;;;16.75;16.00;;;;;16.16;66.24;102627.03;2383841;28;46594;-87
2022/10/03 10:13:36;;;;;;;;;17.25;13.25;;;;;16.17;66.53;102622.59;2382249;28;45183;-86
2022/10/03 10:15:03;;;;;;;;;20.25;15.50;;;;;16.18;66.12;102613.72;2388085;28;45269;-86
2022/10/03 10:16:26;;;;;;;;;14.00;12.75;;;;;16.20;66.31;102627.78;2382075;28;45389;-87
2022/10/03 10:18:15;;;;;;;;;16.25;16.25;;;;;16.22;66.00;102617.16;2387610;28;46333;-87
2022/10/03 10:19:47;;;;;;;;;20.00;16.00;;;;;16.20;65.94;102615.41;2362654;28;45770;-87
2022/10/03 10:21:19;;;;;;;;;16.00;16.00;;;;;16.24;65.99;102620.63;2387340;28;46393;-86
2022/10/03 10:22:35;;;;;;;;;12.00;10.75;;;;;16.24;66.05;102618.00;2392618;28;44801;-87
2022/10/03 10:24:10;;;;;;;;;18.25;16.75;;;;;16.24;65.37;102620.63;2389189;28;45468;-86
2022/10/03 10:25:51;;;;;;;;;18.50;17.00;;;;;16.24;64.98;102623.28;2390791;28;45275;-87
2022/10/03 10:27:49;;;;;;;;;14.00;14.00;;;;;16.19;65.57;102626.94;2382787;28;47173;-87
2022/10/03 10:29:18;;;;;;;;;15.25;15.00;;;;;16.17;65.40;102634.06;2363330;29;45620;-88
2022/10/03 10:30:44;;;;;;;;;19.25;17.75;;;;;16.17;66.04;102630.56;2366824;28;48436;-87
2022/10/03 10:32:36;;;;;;;;;17.75;17.75;;;;;16.17;65.87;102634.06;2387267;28;45409;-87
2022/10/03 10:34:20;;;;;;;;;23.25;20.00;;;;;16.19;65.25;102629.59;2354836;29;46623;-86
2022/10/03 10:36:05;;;;;;;;;18.50;16.00;;;;;16.21;65.54;102626.91;2375025;28;45314;-86
2022/10/03 10:37:43;;;;;;;;;17.25;14.50;;;;;16.23;65.05;102616.22;2382623;28;48577;-86
2022/10/03 10:39:24;;;;;;;;;21.75;15.75;;;;;16.26;64.87;102625.00;2382104;28;44770;-86
2022/10/03 10:40:53;;;;;;;;;17.00;14.00;;;;;16.29;65.20;102624.03;2379064;28;47441;-86
2022/10/03 10:42:29;;;;;;;;;17.25;14.25;;;;;16.33;65.33;102615.06;2387834;28;45387;-86
2022/10/03 10:44:17;;;;;;;;;20.25;13.75;;;;;16.38;64.88;102615.81;2384963;28;45468;-86
2022/10/03 10:45:27;;;;;;;;;17.25;11.25;;;;;16.40;65.11;102619.31;2353789;29;45525;-86
2022/10/03 10:46:38;;;;;;;;;20.00;13.25;;;;;16.43;64.87;102618.34;2353388;29;45752;-85
2022/10/03 10:48:26;;;;;;;;;14.75;14.25;;;;;16.49;65.22;102622.63;2366163;28;45481;-86
2022/10/03 10:49:58;;;;;;;;;22.75;16.00;;;;;16.52;65.24;102606.59;2390207;28;45731;-86
2022/10/03 10:51:30;;;;;;;;;21.75;18.00;;;;;16.54;64.62;102610.94;2395370;28;45244;-86
2022/10/03 10:52:59;;;;;;;;;23.25;19.75;;;;;16.56;64.42;102608.25;2381178;28;48123;-86
2022/10/03 10:54:31;;;;;;;;;21.50;18.75;;;;;16.59;64.83;102608.19;2388512;28;45374;-86
2022/10/03 10:56:00;;;;;;;;;19.75;18.50;;;;;16.63;64.59;102599.22;2381626;28;47349;-87
2022/10/03 10:57:28;;;;;;;;;27.25;24.00;;;;;16.67;64.15;102601.78;2379138;28;45258;-87
2022/10/03 10:59:00;;;;;;;;;18.25;18.00;;;;;16.68;64.68;102600.84;2380921;28;47132;-85
2022/10/03 11:00:41;;;;;;;;;21.25;17.75;;;;;16.70;64.22;102605.19;2378252;28;45347;-86
2022/10/03 11:02:14;;;;;;;;;18.00;15.00;;;;;16.73;64.20;102604.25;2383292;28;46434;-87
2022/10/03 11:04:09;;;;;;;;;17.50;16.50;;;;;16.74;64.23;102601.53;2360017;28;45271;-85
2022/10/03 11:05:40;;;;;;;;;15.75;12.00;;;;;16.76;64.35;102605.03;2380653;28;48048;-86
2022/10/03 11:07:18;;;;;;;;;16.25;13.50;;;;;16.79;63.91;102609.34;2383426;28;45398;-87
2022/10/03 11:08:50;;;;;;;;;19.50;17.75;;;;;16.80;64.37;102613.75;2382464;28;47142;-88
2022/10/03 11:10:38;;;;;;;;;26.25;19.75;;;;;16.84;63.99;102617.22;2388385;28;45182;-87
2022/10/03 11:12:10;;;;;;;;;22.25;17.75;;;;;16.87;63.80;102610.00;2391062;28;45280;-87
2022/10/03 11:13:45;;;;;;;;;21.50;19.50;;;;;16.90;64.11;102617.03;2390548;28;45598;-87
2022/10/03 11:15:17;;;;;;;;;25.25;20.25;;;;;16.95;64.08;102614.22;2392485;28;45679;-87
2022/10/03 11:16:46;;;;;;;;;18.50;15.50;;;;;16.95;63.72;102614.22;2382952;28;45625;-87
2022/10/03 11:18:34;;;;;;;;;24.25;19.75;;;;;16.98;63.71;102614.13;2387681;28;45257;-87
2022/10/03 11:20:09;;;;;;;;;19.25;17.50;;;;;16.97;63.62;102618.56;2393883;28;45467;-88
2022/10/03 11:21:48;;;;;;;;;24.50;17.50;;;;;16.98;62.70;102614.13;2384364;28;46285;-88
2022/10/03 11:23:31;;;;;;;;;21.00;17.50;;;;;16.99;63.43;102621.16;2392671;28;45592;-87
2022/10/03 11:24:59;;;;;;;;;19.75;16.75;;;;;16.98;63.46;102612.34;2394370;28;45706;-87
2022/10/03 11:26:17;;;;;;;;;22.75;17.25;;;;;16.98;63.41;102616.78;2389423;28;45444;-88
2022/10/03 11:27:58;;;;;;;;;22.00;15.50;;;;;16.99;63.20;102606.09;2385146;28;47193;-88
2022/10/03 11:29:40;;;;;;;;;17.75;16.50;;;;;17.01;63.41;102619.38;2382218;28;45304;-87
2022/10/03 11:31:08;;;;;;;;;21.75;18.25;;;;;17.05;63.28;102610.38;2390137;28;46932;-87
2022/10/03 11:32:57;;;;;;;;;21.00;18.75;;;;;17.09;62.39;102609.34;2387803;28;44609;-89
2022/10/03 11:34:25;;;;;;;;;19.50;18.00;;;;;17.14;62.55;102603.91;2391509;28;47468;-88
2022/10/03 11:35:36;;;;;;;;;25.00;19.00;;;;;17.17;63.14;102605.63;2375296;28;45543;-88
2022/10/03 11:36:58;;;;;;;;;19.25;14.25;;;;;17.19;63.28;102609.09;2385493;28;45449;-88
2022/10/03 11:38:08;;;;;;;;;15.00;14.25;;;;;17.20;62.75;102606.41;2394986;28;45388;-88
2022/10/03 11:39:37;;;;;;;;;19.00;14.00;;;;;17.23;63.43;102601.91;2377285;28;47262;-87
2022/10/03 11:41:12;;;;;;;;;13.25;13.25;;;;;17.24;63.09;102599.19;2383569;28;45279;-88
2022/10/03 11:42:41;;;;;;;;;21.00;16.00;;;;;17.26;62.98;102597.34;2383879;28;47117;-88
2022/10/03 11:44:04;;;;;;;;;13.00;12.50;;;;;17.27;62.23;102604.41;2387059;28;45187;-88
2022/10/03 11:45:22;;;;;;;;;13.00;13.00;;;;;17.26;62.66;102593.84;2388273;28;45468;-88
2022/10/03 11:47:10;;;;;;;;;14.50;13.25;;;;;17.26;63.05;102597.34;2394365;28;45377;-88
2022/10/03 11:48:26;;;;;;;;;11.25;10.75;;;;;17.27;62.96;102591.13;2389267;28;48126;-88
2022/10/03 11:49:55;;;;;;;;;12.50;10.75;;;;;17.25;62.82;102590.31;2394090;28;45515;-88
2022/10/03 11:51:17;;;;;;;;;19.00;14.00;;;;;17.27;62.69;102595.56;2388789;28;45613;-88
2022/10/03 11:52:56;;;;;;;;;16.00;12.25;;;;;17.29;62.85;102588.41;2391325;28;45497;-88
2022/10/03 11:54:21;;;;;;;;;10.25;8.50;;;;;17.29;62.41;102583.97;2395779;28;45534;-88
2022/10/03 11:55:44;;;;;;;;;12.75;10.75;;;;;17.32;62.26;102583.00;2394363;28;45362;-88
2022/10/03 11:57:24;;;;;;;;;18.00;14.75;;;;;17.35;62.22;102590.91;2377323;28;47228;-88
2022/10/03 11:58:58;;;;;;;;;23.50;14.50;;;;;17.36;62.56;102583.78;2386643;28;45502;-88
2022/10/03 12:00:20;;;;;;;;;13.50;13.50;;;;;17.36;62.20;102583.78;2384525;28;47509;-87
2022/10/03 12:01:30;;;;;;;;;13.25;11.00;;;;;17.39;62.40;102589.00;2378591;28;45259;-87
2022/10/03 12:03:09;;;;;;;;;18.00;12.50;;;;;17.40;62.17;102582.75;2385715;28;46265;-87
2022/10/03 12:04:41;;;;;;;;;14.50;11.25;;;;;17.40;62.56;102586.31;2394028;28;45433;-87
2022/10/03 12:10:11;;;;;;;;;15.50;12.50;;;;;17.49;62.07;102585.13;2385983;28;45411;-87
2022/10/03 12:12:01;;;;;;;;;15.00;12.00;;;;;17.50;62.22;102583.34;2392584;28;45214;-87
2022/10/03 12:13:22;;;;;;;;;14.00;12.75;;;;;17.50;62.46;102581.56;2393455;28;45329;-88
2022/10/03 12:14:45;;;;;;;;;12.75;11.25;;;;;17.50;62.23;102578.91;2390456;28;45504;-87
2022/10/03 12:15:57;;;;;;;;;18.75;13.75;;;;;17.53;62.29;102584.09;2393531;28;45573;-88
2022/10/03 12:17:38;;;;;;;;;13.00;11.25;;;;;17.56;61.93;102582.28;2400112;28;45222;-88
2022/10/03 12:18:55;;;;;;;;;12.00;10.50;;;;;17.56;61.73;102583.13;2386856;28;47385;-88
2022/10/03 12:20:19;;;;;;;;;13.75;12.75;;;;;17.58;61.84;102583.09;2384467;28;44680;-88
2022/10/03 12:21:59;;;;;;;;;23.75;21.25;;;;;17.61;62.14;102574.97;2390717;28;45615;-88
2022/10/03 12:23:44;;;;;;;;;15.75;13.25;;;;;17.64;61.85;102575.75;2392999;28;45327;-88
2022/10/03 12:25:06;;;;;;;;;11.00;9.75;;;;;17.68;62.23;102563.22;2387439;28;45547;-88
2022/10/03 12:26:35;;;;;;;;;13.50;12.25;;;;;17.73;62.02;102568.41;2384901;28;45345;-87
2022/10/03 12:28:11;;;;;;;;;15.50;9.75;;;;;17.76;61.82;102563.84;2369429;28;47728;-89
2022/10/03 12:29:25;;;;;;;;;9.75;9.50;;;;;17.81;61.99;102565.47;2376570;28;45546;-87
2022/10/03 12:30:55;;;;;;;;;11.75;11.00;;;;;17.87;61.16;102562.59;2379993;28;45513;-85
2022/10/03 12:32:31;;;;;;;;;10.00;9.50;;;;;17.92;60.76;102565.09;2381301;28;44740;-85
2022/10/03 12:34:12;;;;;;;;;18.75;12.25;;;;;17.94;60.17;102566.78;2381108;28;45616;-86
2022/10/03 12:35:37;;;;;;;;;12.00;9.75;;;;;17.96;60.88;102564.94;2387026;28;45763;-86
2022/10/03 12:37:12;;;;;;;;;9.75;9.50;;;;;18.00;60.28;102563.88;2394052;28;45333;-85
2022/10/03 12:38:33;;;;;;;;;11.00;9.75;;;;;18.03;60.60;102562.03;2392929;28;45868;-86
2022/10/03 12:40:28;;;;;;;;;10.50;9.50;;;;;18.05;60.79;102554.91;2374580;28;47290;-85
2022/10/03 12:42:06;;;;;;;;;11.00;11.00;;;;;18.08;60.46;102562.75;2380344;28;44665;-86
2022/10/03 12:43:48;;;;;;;;;13.50;10.00;;;;;18.09;61.01;102565.38;2375426;28;47109;-88
2022/10/03 12:45:13;;;;;;;;;14.25;10.75;;;;;18.10;60.08;102553.78;2381292;28;45377;-88
2022/10/03 12:46:33;;;;;;;;;11.25;11.25;;;;;18.10;60.28;102555.56;2388996;28;45592;-85
2022/10/03 12:48:13;;;;;;;;;10.75;9.25;;;;;18.11;60.51;102546.69;2383666;28;44775;-85
2022/10/03 12:49:40;;;;;;;;;12.25;10.25;;;;;18.15;60.31;102558.09;2380387;28;48256;-87
2022/10/03 12:51:06;;;;;;;;;13.25;10.50;;;;;18.17;59.90;102546.47;2387472;28;45448;-87
2022/10/03 12:52:45;;;;;;;;;12.00;10.75;;;;;18.19;59.89;102546.41;2377141;28;48355;-87
2022/10/03 12:54:29;;;;;;;;;13.75;11.25;;;;;18.20;60.34;102541.03;2390272;28;45433;-88
2022/10/03 12:55:48;;;;;;;;;11.75;10.50;;;;;18.22;59.86;102543.66;2391376;28;45417;-88
2022/10/03 12:57:31;;;;;;;;;15.50;13.25;;;;;18.23;59.60;102545.38;2376084;28;45318;-88
2022/10/03 12:58:47;;;;;;;;;13.25;11.50;;;;;18.21;59.60;102537.47;2384625;28;48793;-88
2022/10/03 13:00:13;;;;;;;;;12.25;12.00;;;;;18.21;59.72;102534.81;2393881;28;45435;-87
2022/10/03 13:02:14;;;;;;;;;13.00;10.25;;;;;18.21;59.38;102533.94;2383760;28;47221;-90
2022/10/03 13:04:06;;;;;;;;;13.50;11.75;;;;;18.21;58.94;102526.81;2387105;28;44875;-88
2022/10/03 13:05:17;;;;;;;;;15.00;12.00;;;;;18.21;59.05;102531.28;2355470;29;47288;-88
2022/10/03 13:06:45;;;;;;;;;12.75;12.00;;;;;18.21;59.26;102525.94;2348909;29;45286;-88
2022/10/03 13:08:01;;;;;;;;;13.25;11.25;;;;;18.21;59.10;102528.63;2349135;29;48422;-87
2022/10/03 13:09:55;;;;;;;;;13.00;11.25;;;;;18.20;58.59;102527.75;2347618;29;44800;-88
2022/10/03 13:11:05;;;;;;;;;16.50;13.75;;;;;18.21;58.88;102525.94;2372410;28;47119;-87
2022/10/03 13:12:38;;;;;;;;;17.50;12.50;;;;;18.19;59.29;102523.34;2383160;28;45259;-87
2022/10/03 13:14:05;;;;;;;;;14.50;13.00;;;;;18.19;59.21;102523.34;2382888;28;47175;-88
2022/10/03 13:15:46;;;;;;;;;13.50;12.50;;;;;18.20;59.49;102522.41;2388862;28;45295;-87
2022/10/03 13:17:01;;;;;;;;;15.25;12.00;;;;;18.19;59.31;102523.34;2382551;28;47294;-88
2022/10/03 13:18:32;;;;;;;;;11.75;11.75;;;;;18.18;59.29;102529.56;2379520;28;45672;-88
2022/10/03 13:19:57;;;;;;;;;12.00;10.75;;;;;18.17;58.98;102527.84;2379487;28;47164;-88
2022/10/03 13:21:18;;;;;;;;;11.75;10.50;;;;;18.15;58.74;102529.66;2381704;28;44763;-88
2022/10/03 13:22:43;;;;;;;;;11.75;10.50;;;;;18.13;59.19;102525.31;2380686;28;47251;-88
2022/10/03 13:24:00;;;;;;;;;10.50;10.50;;;;;18.09;59.15;102528.13;2383480;28;45345;-88
2022/10/03 13:25:23;;;;;;;;;16.75;12.00;;;;;18.09;59.65;102521.94;2376458;28;47377;-88
2022/10/03 13:27:01;;;;;;;;;14.25;11.50;;;;;18.09;59.31;102527.25;2388085;28;45468;-87
2022/10/03 13:28:24;;;;;;;;;13.50;11.25;;;;;18.10;59.47;102523.63;2391385;28;45347;-87
2022/10/03 13:29:43;;;;;;;;;11.50;11.50;;;;;18.13;59.84;102528.84;2390491;28;45395;-86
2022/10/03 13:31:23;;;;;;;;;15.50;11.50;;;;;18.14;58.62;102530.59;2389898;28;47302;-86
2022/10/03 13:32:37;;;;;;;;;13.00;11.25;;;;;18.13;58.64;102520.00;2373737;28;45399;-86
2022/10/03 13:33:54;;;;;;;;;11.50;10.75;;;;;18.13;58.56;102522.66;2383666;28;47246;-87
2022/10/03 13:37:21;;;;;;;;;10.25;8.75;;;;;18.14;58.67;102519.97;2384223;28;45299;-86
2022/10/03 13:38:46;;;;;;;;;12.00;10.50;;;;;18.12;59.13;102513.84;2373876;28;45258;-86
2022/10/03 13:40:07;;;;;;;;;10.50;10.50;;;;;18.15;58.92;102520.84;2381835;28;46239;-87
2022/10/03 13:41:29;;;;;;;;;12.75;10.50;;;;;18.14;58.67;102524.41;2387642;28;45404;-85
2022/10/03 13:42:52;;;;;;;;;13.25;12.25;;;;;18.13;59.08;102531.53;2390457;28;45751;-86
2022/10/03 13:44:08;;;;;;;;;14.25;11.75;;;;;18.13;58.54;102520.00;2393030;28;45493;-86
2022/10/03 13:45:24;;;;;;;;;9.75;9.00;;;;;18.12;58.30;102521.81;2392544;28;45760;-87
2022/10/03 13:46:41;;;;;;;;;12.50;11.25;;;;;18.14;58.44;102519.09;2392176;28;45305;-85
2022/10/03 13:48:05;;;;;;;;;11.50;10.50;;;;;18.15;58.96;102516.34;2383171;28;47518;-85
2022/10/03 13:49:26;;;;;;;;;11.25;10.50;;;;;18.15;59.18;102505.72;2387256;28;45412;-87